createdAt,value
2023-01-17T00:02:20.364Z,96038.66
2023-01-17T00:05:07.015Z,96025.75
2023-01-17T00:07:53.293Z,96022.50
2023-01-17T00:10:23.286Z,96010.25
2023-01-17T00:12:53.091Z,96006.41
2023-01-17T00:15:22.900Z,96017.91
2023-01-17T00:17:50.775Z,96010.91
2023-01-17T00:20:38.743Z,96010.75
2023-01-17T00:23:26.142Z,96018.19
2023-01-17T00:26:05.906Z,96003.13
2023-01-17T00:28:37.834Z,96035.47
2023-01-17T00:31:06.272Z,96021.44
2023-01-17T00:33:34.149Z,95988.63
2023-01-17T00:36:02.060Z,96019.44
2023-01-17T00:38:31.469Z,95999.84
2023-01-17T00:41:06.615Z,95999.34
2023-01-17T00:43:53.253Z,95994.19
2023-01-17T00:46:39.578Z,96001.19
2023-01-17T00:49:25.938Z,96003.50
2023-01-17T00:52:12.328Z,96001.19
2023-01-17T00:54:58.662Z,95987.25
2023-01-17T00:57:45.014Z,95988.69
2023-01-17T01:00:31.940Z,96009.47
2023-01-17T01:03:18.102Z,96026.09
2023-01-17T01:06:04.437Z,95995.53
2023-01-17T01:08:50.839Z,95993.66
2023-01-17T01:11:38.552Z,96013.66
2023-01-17T01:14:26.509Z,95988.16
2023-01-17T01:17:12.920Z,96007.78
2023-01-17T01:19:59.206Z,96012.06
2023-01-17T01:22:45.593Z,96011.16
2023-01-17T01:25:31.901Z,96004.06
2023-01-17T01:28:31.278Z,96014.00
2023-01-17T01:31:23.935Z,96000.47
2023-01-17T01:33:52.749Z,96001.94
2023-01-17T01:36:20.521Z,96023.97
2023-01-17T01:38:48.311Z,95996.13
2023-01-17T01:41:16.090Z,96003.06
2023-01-17T01:43:47.429Z,96010.06
2023-01-17T01:46:18.368Z,95993.06
2023-01-17T01:48:57.834Z,95994.91
2023-01-17T01:51:31.814Z,95981.31
2023-01-17T01:54:03.754Z,95986.59
2023-01-17T01:56:31.551Z,95969.50
2023-01-17T01:58:59.325Z,95971.34
2023-01-17T02:01:27.157Z,95971.75
2023-01-17T02:03:55.107Z,95937.50
2023-01-17T02:06:27.356Z,95936.94
2023-01-17T02:08:57.432Z,95937.72
2023-01-17T02:11:25.084Z,95939.78
2023-01-17T02:13:52.755Z,95911.38
2023-01-17T02:16:44.330Z,95919.22
2023-01-17T02:19:37.210Z,95911.22
2023-01-17T02:22:26.831Z,95916.72
2023-01-17T02:25:03.700Z,95905.03
2023-01-17T02:27:42.644Z,95907.78
2023-01-17T02:30:34.758Z,95927.06
2023-01-17T02:33:14.320Z,95911.81
2023-01-17T02:35:50.681Z,95928.28
2023-01-17T02:38:49.347Z,95898.84
2023-01-17T02:41:20.980Z,95916.31
2023-01-17T02:43:50.635Z,95906.56
2023-01-17T02:46:18.382Z,95903.91
2023-01-17T02:48:46.166Z,95896.31
2023-01-17T02:51:19.833Z,95897.59
2023-01-17T02:54:13.909Z,95893.34
2023-01-17T02:56:44.659Z,95874.66
2023-01-17T02:59:38.558Z,95877.16
2023-01-17T03:02:21.272Z,95900.84
2023-01-17T03:04:51.141Z,95890.47
2023-01-17T03:07:21.453Z,95881.03
2023-01-17T03:09:50.771Z,95892.75
2023-01-17T03:12:18.579Z,95910.47
2023-01-17T03:14:46.342Z,95899.38
2023-01-17T03:17:14.005Z,95861.28
2023-01-17T03:19:41.800Z,95859.19
2023-01-17T03:22:09.570Z,95861.78
2023-01-17T03:24:37.355Z,95847.41
2023-01-17T03:27:05.030Z,95839.84
2023-01-17T03:29:32.750Z,95838.09
2023-01-17T03:32:00.634Z,95835.75
2023-01-17T03:34:28.464Z,95824.19
2023-01-17T03:36:56.221Z,95823.25
2023-01-17T03:39:23.938Z,95842.94
2023-01-17T03:41:51.647Z,95815.31
2023-01-17T03:44:19.376Z,95820.72
2023-01-17T03:46:47.067Z,95810.94
2023-01-17T03:49:15.135Z,95820.41
2023-01-17T03:51:42.942Z,95805.38
2023-01-17T03:54:10.796Z,95816.19
2023-01-17T03:56:38.485Z,95822.19
2023-01-17T03:59:06.224Z,95829.91
2023-01-17T04:01:34.029Z,95827.78
2023-01-17T04:04:01.851Z,95840.50
2023-01-17T04:06:29.589Z,95855.84
2023-01-17T04:08:57.303Z,95840.53
2023-01-17T04:11:25.038Z,95820.34
2023-01-17T04:13:52.778Z,95849.41
2023-01-17T04:16:20.693Z,95845.75
2023-01-17T04:18:48.413Z,95839.41
2023-01-17T04:21:16.056Z,95874.78
2023-01-17T04:23:43.790Z,95847.88
2023-01-17T04:26:12.066Z,95836.50
2023-01-17T04:28:39.744Z,95839.84
2023-01-17T04:31:07.546Z,95846.31
2023-01-17T04:33:35.379Z,95839.88
2023-01-17T04:36:03.107Z,95826.28
2023-01-17T04:38:30.818Z,95834.28
2023-01-17T04:40:58.520Z,95833.50
2023-01-17T04:43:26.255Z,95842.09
2023-01-17T04:45:57.423Z,95843.41
2023-01-17T04:48:25.431Z,95875.59
2023-01-17T04:51:00.656Z,95847.75
2023-01-17T04:53:28.566Z,95874.66
2023-01-17T04:55:56.389Z,95869.66
2023-01-17T04:58:24.181Z,95918.03
2023-01-17T05:00:52.075Z,95904.16
2023-01-17T05:03:20.322Z,95896.25
2023-01-17T05:05:48.122Z,95893.72
2023-01-17T05:08:15.956Z,95888.69
2023-01-17T05:10:45.843Z,95918.91
2023-01-17T05:13:13.683Z,95954.66
2023-01-17T05:15:41.433Z,95891.22
2023-01-17T05:18:16.182Z,95935.63
2023-01-17T05:20:44.023Z,95913.63
2023-01-17T05:23:11.730Z,95943.78
2023-01-17T05:25:44.249Z,95931.47
2023-01-17T05:28:12.682Z,95935.38
2023-01-17T05:30:40.456Z,95953.56
2023-01-17T05:33:10.151Z,95942.25
2023-01-17T05:35:38.041Z,95940.28
2023-01-17T05:38:05.704Z,95901.63
2023-01-17T05:40:33.902Z,95918.34
2023-01-17T05:43:03.008Z,95934.13
2023-01-17T05:45:31.514Z,95934.25
2023-01-17T06:22:45.759Z,95944.72
2023-01-17T06:25:13.603Z,95942.00
2023-01-17T06:27:41.281Z,95940.16
2023-01-17T06:30:09.681Z,95933.44
2023-01-17T06:32:37.364Z,95939.81
2023-01-17T06:35:05.355Z,95938.53
2023-01-17T06:37:33.024Z,95957.50
2023-01-17T06:40:00.776Z,95970.00
2023-01-17T06:42:28.462Z,95981.22
2023-01-17T06:44:56.170Z,95971.06
2023-01-17T06:47:24.036Z,95982.31
2023-01-17T06:49:51.760Z,95983.75
2023-01-17T06:52:19.430Z,95984.38
2023-01-17T06:54:47.147Z,95987.63
2023-01-17T06:57:14.859Z,96005.69
2023-01-17T06:59:42.609Z,96017.06
2023-01-17T07:02:11.042Z,96022.78
2023-01-17T07:04:38.751Z,96028.81
2023-01-17T07:07:06.447Z,96007.69
2023-01-17T07:09:34.192Z,96018.91
2023-01-17T07:12:02.120Z,95986.81
2023-01-17T07:14:29.929Z,96007.84
2023-01-17T07:16:57.644Z,96005.47
2023-01-17T07:19:25.505Z,96006.03
2023-01-17T07:21:53.631Z,96008.16
2023-01-17T07:24:21.575Z,96016.38
2023-01-17T07:26:50.187Z,96025.88
2023-01-17T07:29:18.440Z,96005.38
2023-01-17T07:31:46.103Z,96002.81
2023-01-17T07:34:13.825Z,96020.09
2023-01-17T07:36:41.504Z,95985.78
2023-01-17T07:39:09.762Z,95968.63
2023-01-17T07:41:41.389Z,95992.56
2023-01-17T07:44:12.368Z,95988.91
2023-01-17T07:46:40.459Z,95996.53
2023-01-17T07:49:08.194Z,96005.47
2023-01-17T07:51:35.882Z,96010.78
2023-01-17T07:54:04.183Z,96013.22
2023-01-17T07:56:34.033Z,96010.78
2023-01-17T07:59:01.734Z,96009.81
2023-01-17T08:01:29.920Z,96013.22
2023-01-17T08:03:57.879Z,96032.44
2023-01-17T08:06:25.755Z,96032.88
2023-01-17T08:08:58.924Z,96054.06
2023-01-17T08:11:26.705Z,96050.97
2023-01-17T08:13:59.246Z,96037.88
2023-01-17T08:16:28.716Z,96049.25
2023-01-17T08:18:56.619Z,96056.91
2023-01-17T08:21:24.417Z,96046.28
2023-01-17T08:23:52.347Z,96047.50
2023-01-17T08:26:23.701Z,96039.69
2023-01-17T08:28:56.209Z,96040.84
2023-01-17T08:31:24.169Z,96063.69
2023-01-17T08:33:51.928Z,96048.97
2023-01-17T08:36:19.830Z,96044.91
2023-01-17T08:38:47.643Z,96039.97
2023-01-17T08:41:15.367Z,96041.25
2023-01-17T08:43:43.073Z,96042.53
2023-01-17T08:46:10.920Z,96027.47
2023-01-17T08:48:38.691Z,96053.34
2023-01-17T08:51:07.395Z,96042.13
2023-01-17T08:53:35.122Z,96030.09
2023-01-17T08:56:04.273Z,96033.56
2023-01-17T08:58:32.159Z,96017.41
2023-01-17T09:01:02.298Z,96017.69
2023-01-17T09:03:31.073Z,96014.47
2023-01-17T09:06:06.488Z,96005.00
2023-01-17T09:08:36.839Z,96010.94
2023-01-17T09:11:09.040Z,96009.88
2023-01-17T09:13:36.797Z,96010.19
2023-01-17T09:16:04.547Z,96001.75
2023-01-17T09:18:32.812Z,96001.75
2023-01-17T09:21:00.976Z,96007.41
2023-01-17T09:23:30.061Z,96006.16
2023-01-17T09:25:59.441Z,95993.31
2023-01-17T09:28:27.315Z,96004.78
2023-01-17T09:30:55.149Z,96011.31
2023-01-17T09:33:25.640Z,96002.59
2023-01-17T09:35:53.454Z,96011.72
2023-01-17T09:38:21.789Z,96008.66
2023-01-17T09:40:49.652Z,95998.44
2023-01-17T09:43:44.630Z,95999.28
2023-01-17T09:46:22.610Z,95996.53
2023-01-17T09:48:59.599Z,95993.47
2023-01-17T09:51:27.434Z,95982.84
2023-01-17T09:53:55.163Z,95980.69
2023-01-17T09:56:29.600Z,95979.31
2023-01-17T09:59:33.206Z,95975.88
2023-01-17T10:02:24.350Z,95972.44
2023-01-17T10:05:02.644Z,95976.81
2023-01-17T10:07:50.768Z,95960.81
2023-01-17T10:11:03.277Z,95962.31
2023-01-17T10:13:37.948Z,95953.41
2023-01-17T10:16:26.934Z,95940.66
2023-01-17T10:19:15.788Z,95949.19
2023-01-17T10:22:07.585Z,95949.13
2023-01-17T10:25:00.454Z,95946.75
2023-01-17T10:27:34.391Z,95946.28
2023-01-17T10:30:03.984Z,95941.63
2023-01-17T10:32:32.397Z,95940.31
2023-01-17T10:35:02.233Z,95950.34
2023-01-17T10:37:40.477Z,95941.47
2023-01-17T10:40:21.416Z,95939.78
2023-01-17T10:42:52.785Z,95943.78
2023-01-17T10:45:31.181Z,95942.94
2023-01-17T10:48:27.802Z,95950.03
2023-01-17T10:50:55.463Z,95927.78
2023-01-17T10:53:35.211Z,95940.09
2023-01-17T10:56:02.915Z,95962.63
2023-01-17T10:58:31.624Z,95964.03
2023-01-17T11:01:05.654Z,95962.56
2023-01-17T11:03:33.565Z,95958.38
2023-01-17T11:06:20.643Z,95946.09
2023-01-17T11:08:57.945Z,95951.63
2023-01-17T11:11:33.030Z,95951.06
2023-01-17T11:14:03.981Z,95956.69
2023-01-17T11:16:31.796Z,95948.66
2023-01-17T11:19:21.429Z,95951.94
2023-01-17T11:21:53.308Z,95940.53
2023-01-17T11:24:26.563Z,95940.00
2023-01-17T11:26:54.363Z,95928.13
2023-01-17T11:29:38.918Z,95921.44
2023-01-17T11:32:58.253Z,95913.97
2023-01-17T11:35:27.568Z,95903.41
2023-01-17T11:38:17.852Z,95887.19
2023-01-17T11:40:46.550Z,95887.38
2023-01-17T11:43:21.236Z,95881.69
2023-01-17T11:46:14.346Z,95890.72
2023-01-17T11:48:42.174Z,95888.31
2023-01-17T11:51:33.613Z,95882.44
2023-01-17T11:54:24.742Z,95882.03
2023-01-17T11:56:59.295Z,95870.13
2023-01-17T11:59:34.711Z,95870.22
2023-01-17T12:02:37.131Z,95869.03
2023-01-17T12:05:23.669Z,95872.53
2023-01-17T12:07:51.356Z,95873.38
2023-01-17T12:10:42.331Z,95872.19
2023-01-17T12:13:59.412Z,95873.28
2023-01-17T12:16:42.504Z,95872.94
2023-01-17T12:19:28.725Z,95870.25
2023-01-17T12:22:18.193Z,95875.69
2023-01-17T12:24:55.173Z,95865.06
2023-01-17T12:27:31.653Z,95864.75
2023-01-17T12:30:12.008Z,95858.28
2023-01-17T12:32:55.016Z,95861.97
2023-01-17T12:35:38.608Z,95857.53
2023-01-17T12:38:09.458Z,95861.59
2023-01-17T12:40:39.091Z,95858.06
2023-01-17T12:43:26.956Z,95858.34
2023-01-17T12:45:54.714Z,95862.38
2023-01-17T12:48:23.309Z,95870.56
2023-01-17T12:51:14.208Z,95864.66
2023-01-17T12:53:43.929Z,95872.28
2023-01-17T12:56:16.438Z,95870.69
2023-01-17T12:59:12.196Z,95869.19
2023-01-17T13:01:40.214Z,95872.88
2023-01-17T13:04:20.237Z,95863.41
2023-01-17T13:07:00.430Z,95871.69
2023-01-17T13:09:39.636Z,95863.00
2023-01-17T13:12:10.549Z,95869.78
2023-01-17T13:14:38.306Z,95877.81
2023-01-17T13:17:24.517Z,95869.50
2023-01-17T13:20:00.993Z,95872.53
2023-01-17T13:22:28.914Z,95885.06
2023-01-17T13:25:03.627Z,95891.31
2023-01-17T13:27:40.375Z,95894.91
2023-01-17T13:30:22.196Z,95894.75
2023-01-17T13:33:01.612Z,95904.97
2023-01-17T13:35:41.970Z,95897.22
2023-01-17T13:38:44.778Z,95888.44
2023-01-17T13:41:15.521Z,95885.97
2023-01-17T13:44:06.158Z,95883.69
2023-01-17T13:47:04.371Z,95880.84
2023-01-17T13:49:56.789Z,95879.94
2023-01-17T13:52:24.521Z,95886.63
2023-01-17T13:54:52.660Z,95867.56
2023-01-17T13:57:23.534Z,95872.19
2023-01-17T13:59:51.822Z,95870.22
2023-01-17T14:02:31.702Z,95868.03
2023-01-17T14:05:09.513Z,95871.47
2023-01-17T14:08:03.286Z,95867.31
2023-01-17T14:10:36.950Z,95866.44
2023-01-17T14:13:05.786Z,95869.00
2023-01-17T14:15:34.871Z,95871.75
2023-01-17T14:18:03.923Z,95872.38
2023-01-17T14:20:40.277Z,95875.34
2023-01-17T14:23:21.708Z,95881.22
2023-01-17T14:25:49.446Z,95886.53
2023-01-17T14:28:26.330Z,95877.81
2023-01-17T14:30:56.042Z,95881.81
2023-01-17T14:33:29.165Z,95879.91
2023-01-17T14:35:58.490Z,95892.91
2023-01-17T14:38:27.923Z,95890.31
2023-01-17T14:41:00.252Z,95883.84
2023-01-17T14:43:28.708Z,95895.03
2023-01-17T14:45:57.958Z,95885.84
2023-01-17T14:48:25.755Z,95887.19
2023-01-17T14:50:54.415Z,95891.41
2023-01-17T14:53:40.927Z,95891.72
2023-01-17T14:56:16.917Z,95889.47
2023-01-17T14:58:46.695Z,95902.72
2023-01-17T15:01:18.316Z,95887.56
2023-01-17T15:03:46.028Z,95889.50
2023-01-17T15:06:17.696Z,95876.91
2023-01-17T15:08:45.432Z,95875.56
2023-01-17T15:11:27.415Z,95875.31
2023-01-17T15:13:57.515Z,95876.81
2023-01-17T15:16:30.880Z,95866.53
2023-01-17T15:18:59.659Z,95879.16
2023-01-17T15:21:29.831Z,95872.88
2023-01-17T15:24:03.868Z,95857.66
2023-01-17T15:26:39.232Z,95865.16
2023-01-17T15:29:08.744Z,95865.22
2023-01-17T15:31:43.175Z,95870.75
2023-01-17T15:34:29.715Z,95880.16
2023-01-17T15:37:04.601Z,95877.34
2023-01-17T15:39:36.762Z,95885.22
2023-01-17T15:42:06.547Z,95871.91
2023-01-17T15:44:47.517Z,95868.78
2023-01-17T15:47:35.544Z,95868.81
2023-01-17T15:50:26.279Z,95879.72
2023-01-17T15:52:58.285Z,95883.84
2023-01-17T15:55:36.199Z,95885.38
2023-01-17T15:58:05.050Z,95876.56
2023-01-17T16:00:39.249Z,95872.41
2023-01-17T16:03:27.543Z,95874.00
2023-01-17T16:05:57.702Z,95874.53
2023-01-17T16:08:39.978Z,95874.94
2023-01-17T16:11:08.540Z,95870.88
2023-01-17T16:13:42.308Z,95871.31
2023-01-17T16:16:21.400Z,95880.97
2023-01-17T16:18:49.525Z,95884.03
2023-01-17T16:21:18.719Z,95886.38
2023-01-17T16:23:46.829Z,95890.59
2023-01-17T16:26:15.120Z,95891.09
2023-01-17T16:28:42.965Z,95885.41
2023-01-17T16:31:10.718Z,95879.41
2023-01-17T16:33:39.372Z,95879.16
2023-01-17T16:36:10.421Z,95869.91
2023-01-17T16:38:38.148Z,95870.63
2023-01-17T16:41:06.011Z,95877.63
2023-01-17T16:43:33.745Z,95868.34
2023-01-17T16:46:01.502Z,95860.63
2023-01-17T16:48:29.266Z,95851.81
2023-01-17T16:50:56.924Z,95863.19
2023-01-17T16:53:26.326Z,95858.28
2023-01-17T16:55:58.881Z,95847.50
2023-01-17T16:58:26.631Z,95841.47
2023-01-17T17:00:56.524Z,95826.78
2023-01-17T17:03:24.335Z,95820.88
2023-01-17T17:05:56.518Z,95821.25
2023-01-17T17:08:24.423Z,95813.38
2023-01-17T17:10:52.208Z,95807.31
2023-01-17T17:13:20.237Z,95791.63
2023-01-17T17:15:48.691Z,95783.38
2023-01-17T17:18:17.245Z,95794.28
2023-01-17T17:20:45.206Z,95790.13
2023-01-17T17:23:12.919Z,95796.09
2023-01-17T17:25:40.675Z,95785.47
2023-01-17T17:28:09.748Z,95793.38
2023-01-17T17:30:37.427Z,95791.38
2023-01-17T17:33:05.160Z,95795.97
2023-01-17T17:35:36.016Z,95801.91
2023-01-17T17:38:06.662Z,95789.00
2023-01-17T17:40:35.574Z,95784.22
2023-01-17T17:43:03.312Z,95774.56
2023-01-17T17:45:31.041Z,95771.19
2023-01-17T17:47:58.762Z,95773.88
2023-01-17T17:50:26.461Z,95776.44
2023-01-17T17:52:54.246Z,95755.22
2023-01-17T17:55:21.957Z,95742.91
2023-01-17T17:57:49.669Z,95739.84
2023-01-17T18:00:17.949Z,95737.75
2023-01-17T18:02:45.627Z,95744.94
2023-01-17T18:05:13.336Z,95745.09
2023-01-17T18:07:41.002Z,95741.34
2023-01-17T18:10:09.251Z,95734.13
2023-01-17T18:12:36.929Z,95730.03
2023-01-17T18:15:05.081Z,95723.75
2023-01-17T18:17:32.789Z,95711.97
2023-01-17T18:20:00.893Z,95694.69
2023-01-17T18:22:28.606Z,95702.13
2023-01-17T18:24:56.328Z,95708.56
2023-01-17T18:27:23.988Z,95711.94
2023-01-17T18:29:51.694Z,95699.03
2023-01-17T18:32:19.389Z,95696.00
2023-01-17T18:34:47.547Z,95696.50
2023-01-17T18:37:15.239Z,95691.38
2023-01-17T18:39:43.743Z,95696.78
2023-01-17T18:42:11.945Z,95699.25
2023-01-17T18:44:39.813Z,95696.69
2023-01-17T18:47:07.591Z,95688.00
2023-01-17T18:49:35.566Z,95691.84
2023-01-17T18:52:03.343Z,95687.59
2023-01-17T18:54:31.956Z,95684.34
2023-01-17T18:56:59.665Z,95682.78
2023-01-17T18:59:27.382Z,95689.16
2023-01-17T19:01:55.188Z,95682.16
2023-01-17T19:04:22.968Z,95685.44
2023-01-17T19:06:50.733Z,95682.53
2023-01-17T19:09:18.528Z,95684.41
2023-01-17T19:11:47.485Z,95704.34
2023-01-17T19:14:15.881Z,95687.47
2023-01-17T19:16:43.932Z,95703.63
2023-01-17T19:19:13.984Z,95706.09
2023-01-17T19:21:41.888Z,95690.81
2023-01-17T19:24:10.605Z,95668.31
2023-01-17T19:26:38.367Z,95700.25
2023-01-17T19:29:06.924Z,95688.44
2023-01-17T19:31:47.509Z,95720.06
2023-01-17T19:34:16.086Z,95697.00
2023-01-17T19:36:43.784Z,95675.53
2023-01-17T19:39:11.694Z,95689.22
2023-01-17T19:41:43.710Z,95714.44
2023-01-17T19:44:12.438Z,95708.91
2023-01-17T19:46:40.131Z,95709.88
2023-01-17T19:49:08.219Z,95709.00
2023-01-17T19:51:35.984Z,95709.53
2023-01-17T19:54:06.440Z,95694.91
2023-01-17T19:56:34.202Z,95696.91
2023-01-17T19:59:02.378Z,95709.41
2023-01-17T20:01:31.599Z,95710.56
2023-01-17T20:04:00.163Z,95686.16
2023-01-17T20:06:30.103Z,95709.53
2023-01-17T20:08:57.866Z,95703.06
2023-01-17T20:11:26.413Z,95688.69
2023-01-17T20:13:55.603Z,95692.88
2023-01-17T20:16:24.104Z,95688.34
2023-01-17T20:18:52.021Z,95682.78
2023-01-17T20:21:22.001Z,95703.50
2023-01-17T20:23:50.646Z,95707.31
2023-01-17T20:26:29.673Z,95700.59
2023-01-17T20:28:57.478Z,95698.03
2023-01-17T20:31:25.502Z,95694.94
2023-01-17T20:33:54.190Z,95690.47
2023-01-17T20:36:23.416Z,95690.06
2023-01-17T20:38:51.227Z,95694.41
2023-01-17T20:41:25.747Z,95681.88
2023-01-17T20:43:54.910Z,95693.59
2023-01-17T20:46:24.793Z,95706.09
2023-01-17T20:48:54.287Z,95708.03
2023-01-17T20:51:23.208Z,95681.13
2023-01-17T20:53:52.501Z,95687.19
2023-01-17T20:56:20.199Z,95678.78
2023-01-17T20:58:48.647Z,95690.25
2023-01-17T21:01:20.215Z,95693.84
2023-01-17T21:03:51.138Z,95664.00
2023-01-17T21:06:19.105Z,95682.84
2023-01-17T21:08:47.230Z,95682.06
2023-01-17T21:11:16.459Z,95691.84
2023-01-17T21:13:44.255Z,95688.69
2023-01-17T21:16:13.470Z,95668.66
2023-01-17T21:18:41.405Z,95654.72
2023-01-17T21:21:12.933Z,95655.75
2023-01-17T21:23:42.582Z,95674.56
2023-01-17T21:26:12.136Z,95663.44
2023-01-17T21:28:41.316Z,95680.28
2023-01-17T21:31:24.972Z,95658.47
2023-01-17T21:33:54.527Z,95673.44
2023-01-17T21:36:23.880Z,95677.19
2023-01-17T21:38:52.991Z,95670.69
2023-01-17T21:41:21.758Z,95680.38
2023-01-17T21:43:58.109Z,95689.72
2023-01-17T21:46:26.257Z,95695.53
2023-01-17T21:48:54.097Z,95656.66
2023-01-17T21:51:21.919Z,95671.19
2023-01-17T21:53:49.781Z,95659.34
2023-01-17T21:56:36.157Z,95648.44
2023-01-17T21:59:03.897Z,95656.00
2023-01-17T22:01:32.344Z,95618.88
2023-01-17T22:04:01.606Z,95639.81
2023-01-17T22:06:31.012Z,95665.13
2023-01-17T22:08:59.170Z,95664.47
2023-01-17T22:11:27.267Z,95664.50
2023-01-17T22:13:55.687Z,95666.38
2023-01-17T22:16:24.409Z,95631.22
2023-01-17T22:18:52.212Z,95611.25
2023-01-17T22:21:21.662Z,95638.59
2023-01-17T22:23:51.712Z,95642.97
2023-01-17T22:26:20.504Z,95641.94
2023-01-17T22:28:48.269Z,95649.56
2023-01-17T22:31:23.524Z,95654.38
2023-01-17T22:33:55.342Z,95657.72
2023-01-17T22:36:23.171Z,95660.63
2023-01-17T22:38:50.925Z,95648.50
2023-01-17T22:41:23.806Z,95629.28
2023-01-17T22:43:52.604Z,95633.22
2023-01-17T22:46:21.902Z,95660.31
2023-01-17T22:48:49.636Z,95652.03
2023-01-17T22:51:18.428Z,95656.34
2023-01-17T22:53:50.303Z,95658.00
2023-01-17T22:56:22.491Z,95651.72
2023-01-17T22:58:50.370Z,95664.16
2023-01-17T23:01:18.828Z,95645.56
2023-01-17T23:03:47.192Z,95632.84
2023-01-17T23:06:16.428Z,95650.63
2023-01-17T23:08:45.494Z,95659.88
2023-01-17T23:11:38.890Z,95643.41
2023-01-17T23:14:11.676Z,95642.41
2023-01-17T23:17:09.333Z,95649.00
2023-01-17T23:19:41.310Z,95658.66
2023-01-17T23:22:17.636Z,95639.63
2023-01-17T23:24:58.145Z,95643.28
2023-01-17T23:27:55.473Z,95625.69
2023-01-17T23:30:35.423Z,95621.91
2023-01-17T23:33:13.361Z,95630.19
2023-01-17T23:35:43.365Z,95638.44
2023-01-17T23:38:29.263Z,95611.69
2023-01-17T23:41:24.063Z,95646.09
2023-01-17T23:43:53.462Z,95627.59
2023-01-17T23:46:21.238Z,95630.56
2023-01-17T23:48:49.014Z,95609.88
2023-01-17T23:51:16.731Z,95619.06
2023-01-17T23:53:44.879Z,95618.25
2023-01-17T23:56:18.172Z,95625.22
2023-01-17T23:58:45.890Z,95637.59
